Royal Clipper — 9HA2796 — position and weather

sailwx.info

Track history (hours):
 
Tides and Currents Weather Stations Pressure Air Temp Water Temp Dewpoint Dewpoint Depression Visibility Wind Speed Wind Dir Waves Ship Positions

Royal Clipper

Last reported at 2018-Jun-13 08:27 UTC. Time now 2018-Jun-21 20:09 UTC.
Position N 37°56' E 015°25'.
Warning: this ship's position is 8 days out of date.

Length 137 m; draft 6.2 m.

Type: Ship. MMSI: 215813000.

Date/timePositionNaut miles runAvg speedWind from/ knotsBaromVisibWave heightAir tempDewpointWater temp
2018-Jun-13 08:27N 37°56' E 015°25'7 7.7
2018-Jun-13 07:33N 38°02' E 015°30'110.3
2018-Jun-13 07:30N 38°03' E 015°30'510.0
2018-Jun-13 06:59N 38°07' E 015°33'510.4
2018-Jun-13 06:30N 38°12' E 015°35'612.6
2018-Jun-13 06:00N 38°17' E 015°40'510.4
2018-Jun-13 05:30N 38°21' E 015°37'3 6.9
2018-Jun-13 05:00N 38°25' E 015°36'5 9.9
2018-Jun-13 04:28N 38°30' E 015°33'12410.2
2018-Jun-12 16:21N 40°21' E 014°23'411.2
2018-Jun-12 16:00N 40°25' E 014°21'611.3
2018-Jun-12 15:30N 40°30' E 014°19'611.0
2018-Jun-12 15:00N 40°36' E 014°17'4 8.7
2018-Jun-12 14:30N 40°39' E 014°21'2 2.9
2018-Jun-12 13:55N 40°38' E 014°23'0 0.0
2018-Jun-12 13:28N 40°38' E 014°23'0 0.0
2018-Jun-12 12:58N 40°38' E 014°23'0 0.0
2018-Jun-12 12:28N 40°38' E 014°23'0 0.0
2018-Jun-12 11:58N 40°38' E 014°23'0 0.0
2018-Jun-12 11:28N 40°38' E 014°23'0 0.0
2018-Jun-12 10:58N 40°38' E 014°23'0 0.0
2018-Jun-12 10:28N 40°38' E 014°23'0 0.0
2018-Jun-12 09:55N 40°38' E 014°23'0 0.0
2018-Jun-12 09:28N 40°38' E 014°23'0 0.0
2018-Jun-12 08:58N 40°38' E 014°23'0 0.0
2018-Jun-12 08:28N 40°38' E 014°23'0 0.0
2018-Jun-12 07:58N 40°38' E 014°23'0 0.0
2018-Jun-12 07:28N 40°38' E 014°23'0 0.0
2018-Jun-12 06:58N 40°38' E 014°23'0 0.0
2018-Jun-12 06:28N 40°38' E 014°23'0 0.0
2018-Jun-12 05:58N 40°38' E 014°23'0 0.0
2018-Jun-12 05:25N 40°38' E 014°23'0 0.0
2018-Jun-12 04:58N 40°38' E 014°23'0 0.0
2018-Jun-12 04:28N 40°38' E 014°23'0 0.0
2018-Jun-12 03:58N 40°38' E 014°23'0 0.0
2018-Jun-12 03:28N 40°38' E 014°23'0 0.0
2018-Jun-12 02:58N 40°38' E 014°23'0 0.0
2018-Jun-12 02:28N 40°38' E 014°23'0 0.0
2018-Jun-12 01:58N 40°38' E 014°23'0 0.0
2018-Jun-12 01:28N 40°38' E 014°23'0 0.0
2018-Jun-12 00:58N 40°38' E 014°23'0 0.0
2018-Jun-12 00:28N 40°38' E 014°23'0 0.0
2018-Jun-11 23:58N 40°38' E 014°23'0 0.0
2018-Jun-11 23:28N 40°38' E 014°23'0 0.0
2018-Jun-11 22:58N 40°38' E 014°23'0 0.0
2018-Jun-11 22:19N 40°38' E 014°23'0 0.0
2018-Jun-11 21:52N 40°38' E 014°23'0 0.0
2018-Jun-11 21:19N 40°38' E 014°23'0 0.0
2018-Jun-11 20:55N 40°38' E 014°23'0 0.0
2018-Jun-11 20:25N 40°38' E 014°23'0 0.0
2018-Jun-11 19:58N 40°38' E 014°23'0 0.0
2018-Jun-11 19:28N 40°38' E 014°23'0 0.0
2018-Jun-11 18:55N 40°38' E 014°23'0 0.0
2018-Jun-11 18:28N 40°38' E 014°23'0 0.0
2018-Jun-11 17:58N 40°38' E 014°23'0 0.0
2018-Jun-11 17:28N 40°38' E 014°23'0 0.0
2018-Jun-11 16:55N 40°38' E 014°23'0 0.0
2018-Jun-11 16:28N 40°38' E 014°23'0 0.0
2018-Jun-11 15:58N 40°38' E 014°23'0 0.0
2018-Jun-11 15:28N 40°38' E 014°23'0 0.0
2018-Jun-11 14:58N 40°38' E 014°23'0 0.0
2018-Jun-11 14:28N 40°38' E 014°23'0 0.0
2018-Jun-11 13:58N 40°38' E 014°23'0 0.0
2018-Jun-11 13:28N 40°38' E 014°23'0 0.0
2018-Jun-11 12:58N 40°38' E 014°23'0 0.0
2018-Jun-11 12:28N 40°38' E 014°23'0 0.0
2018-Jun-11 11:58N 40°38' E 014°23'0 0.0
2018-Jun-11 11:28N 40°38' E 014°23'0 0.1
2018-Jun-11 10:58N 40°38' E 014°23'0 0.0
2018-Jun-11 10:28N 40°38' E 014°23'0 0.1
2018-Jun-11 09:58N 40°38' E 014°23'0 0.0
2018-Jun-11 09:19N 40°38' E 014°23'0 0.0
2018-Jun-11 08:58N 40°38' E 014°23'0 0.0
2018-Jun-11 08:28N 40°38' E 014°23'0 0.0
2018-Jun-11 07:58N 40°38' E 014°23'0 0.0
2018-Jun-11 07:28N 40°38' E 014°23'0 0.0
2018-Jun-11 06:52N 40°38' E 014°23'0 0.1
2018-Jun-11 06:30N 40°38' E 014°23'3 6.9
2018-Jun-11 06:00N 40°39' E 014°18'510.7
2018-Jun-11 05:30N 40°39' E 014°11'510.1
2018-Jun-11 05:00N 40°39' E 014°05'5 9.3
2018-Jun-11 04:29N 40°39' E 013°58'4 9.3
2018-Jun-11 04:01N 40°39' E 013°52'5 9.6
2018-Jun-11 03:28N 40°39' E 013°46'1 3.2
2018-Jun-11 03:00N 40°40' E 013°44'1 1.1
2018-Jun-11 02:29N 40°40' E 013°43'1 1.4
2018-Jun-11 01:57N 40°40' E 013°42'1 1.1
2018-Jun-11 01:30N 40°40' E 013°41'1 1.2
2018-Jun-11 00:39N 40°40' E 013°40'1 2.1
2018-Jun-11 00:14N 40°41' E 013°39'1 2.8
2018-Jun-10 23:56N 40°41' E 013°38'2 3.0
2018-Jun-10 23:20N 40°41' E 013°36'1 3.5
2018-Jun-10 23:00N 40°41' E 013°34'2 3.6
2018-Jun-10 22:30N 40°42' E 013°32'2 3.6
2018-Jun-10 22:01N 40°42' E 013°30'4 3.9
2018-Jun-10 21:01N 40°43' E 013°25'22 1.9
2018-Jun-10 09:10N 40°54' E 012°59'21 0.5
2018-Jun-08 12:05N 41°00' E 013°25'1 8.4
2018-Jun-08 12:00N 40°60' E 013°26'158 8.4
2018-Jun-07 17:07N 38°44' E 015°11'1010.8
2018-Jun-07 16:14N 38°35' E 015°06'310.5
2018-Jun-07 15:59N 38°33' E 015°04'511.1
2018-Jun-07 15:30N 38°29' E 014°60'2 0.3
2018-Jun-07 08:38N 38°28' E 014°58'0 0.0
2018-Jun-07 08:20N 38°28' E 014°58'6 3.5
2018-Jun-07 06:38N 38°27' E 015°05'311.0
2018-Jun-07 06:22N 38°26' E 015°09'2 5.6
2018-Jun-07 05:59N 38°25' E 015°11'3 4.6
2018-Jun-07 05:25N 38°24' E 015°14'1 2.9
2018-Jun-07 04:57N 38°24' E 015°16'2 3.3
2018-Jun-07 04:20N 38°23' E 015°18'1 3.7
2018-Jun-07 03:59N 38°23' E 015°20'3 3.7
2018-Jun-07 03:14N 38°22' E 015°23'1 3.4
2018-Jun-07 03:00N 38°22' E 015°24'2 3.1
2018-Jun-07 02:30N 38°22' E 015°26'2 3.8
2018-Jun-07 02:00N 38°21' E 015°29'10 9.9
2018-Jun-07 01:00N 38°20' E 015°41'710.5
2018-Jun-07 00:20N 38°14' E 015°37'513.0
2018-Jun-06 23:58N 38°09' E 015°37'510.3
2018-Jun-06 23:29N 38°04' E 015°35'11 0.7
2018-Jun-06 07:39N 37°56' E 015°25'711.6
2018-Jun-06 07:03N 38°02' E 015°30'1 8.3
2018-Jun-06 06:58N 38°03' E 015°30'613.8
2018-Jun-06 06:30N 38°08' E 015°34'814.3
2018-Jun-06 05:58N 38°15' E 015°39'612.2
2018-Jun-06 05:30N 38°21' E 015°38'714.1
2018-Jun-06 05:00N 38°27' E 015°35'13110.0
2018-Jun-05 15:57N 40°31' E 014°42'5 0.5
2018-Jun-05 05:05N 40°34' E 014°36'2 2.9
2018-Jun-05 04:23N 40°32' E 014°34'2 3.5
2018-Jun-05 03:54N 40°31' E 014°33'1 2.4
2018-Jun-05 03:23N 40°30' E 014°31'1 2.7
2018-Jun-05 02:57N 40°29' E 014°30'1 3.0
2018-Jun-05 02:30N 40°29' E 014°29'2 3.3
2018-Jun-05 02:00N 40°29' E 014°26'1 2.8
2018-Jun-05 01:29N 40°30' E 014°25'2 3.8
2018-Jun-05 01:00N 40°31' E 014°24'2 3.1
2018-Jun-05 00:30N 40°32' E 014°22'1 1.1
2018-Jun-05 00:00N 40°32' E 014°21'1 2.7
2018-Jun-04 23:30N 40°32' E 014°20'3 5.6
2018-Jun-04 23:00N 40°34' E 014°17'5 9.6
2018-Jun-04 22:30N 40°39' E 014°19'3 6.9
2018-Jun-04 22:00N 40°38' E 014°23'0 0.2
2018-Jun-04 21:28N 40°38' E 014°23'0 0.0
2018-Jun-04 20:58N 40°38' E 014°23'0 0.0
2018-Jun-04 20:28N 40°38' E 014°23'0 0.0
2018-Jun-04 19:58N 40°38' E 014°23'0 0.0
2018-Jun-04 19:28N 40°38' E 014°23'0 0.0
2018-Jun-04 18:58N 40°38' E 014°23'0 0.0
2018-Jun-04 18:28N 40°38' E 014°23'0 0.0
2018-Jun-04 17:58N 40°38' E 014°23'0 0.0
2018-Jun-04 17:28N 40°38' E 014°23'0 0.0
2018-Jun-04 16:58N 40°38' E 014°23'0 0.0
2018-Jun-04 16:28N 40°38' E 014°23'0 0.0
2018-Jun-04 15:58N 40°38' E 014°23'0 0.0
2018-Jun-04 15:28N 40°38' E 014°23'0 0.0
2018-Jun-04 14:58N 40°38' E 014°23'0 0.0
2018-Jun-04 14:28N 40°38' E 014°23'0 0.0
2018-Jun-04 13:58N 40°38' E 014°23'0 0.1
2018-Jun-04 13:28N 40°38' E 014°23'0 0.0
2018-Jun-04 12:58N 40°38' E 014°23'0 0.0
2018-Jun-04 12:28N 40°38' E 014°23'0 0.1
2018-Jun-04 11:58N 40°38' E 014°23'0 0.0
2018-Jun-04 11:28N 40°38' E 014°23'0 0.0
2018-Jun-04 10:58N 40°38' E 014°23'0 0.0
2018-Jun-04 10:28N 40°38' E 014°23'0 0.0
2018-Jun-04 09:58N 40°38' E 014°23'0 0.0
2018-Jun-04 09:28N 40°38' E 014°23'0 0.0
2018-Jun-04 08:58N 40°38' E 014°23'0 0.0
2018-Jun-04 08:28N 40°38' E 014°23'0 0.1
2018-Jun-04 07:58N 40°38' E 014°23'0 0.0
2018-Jun-04 07:28N 40°38' E 014°23'0 0.0
2018-Jun-04 06:58N 40°38' E 014°23'0 0.0
2018-Jun-04 06:28N 40°38' E 014°23'0 0.0
2018-Jun-04 05:58N 40°38' E 014°23'0 0.0
2018-Jun-04 05:30N 40°38' E 014°23'0 0.3
2018-Jun-04 05:00N 40°38' E 014°23'4 8.7
2018-Jun-04 04:30N 40°39' E 014°17'510.7
2018-Jun-04 04:00N 40°39' E 014°10'510.7
2018-Jun-04 03:31N 40°38' E 014°03'510.6
2018-Jun-04 03:00N 40°38' E 013°56'510.9
2018-Jun-04 02:30N 40°39' E 013°49'611.0
2018-Jun-04 02:00N 40°40' E 013°42'611.1
2018-Jun-04 01:30N 40°41' E 013°35'511.0
2018-Jun-04 01:00N 40°42' E 013°28'610.9
2018-Jun-04 00:29N 40°43' E 013°21'1010.6
2018-Jun-03 23:35N 40°48' E 013°10'14 4.7
2018-Jun-03 20:35N 40°57' E 012°56'0 0.7
2018-Jun-03 20:30N 40°57' E 012°56'0 0.6
2018-Jun-03 20:00N 40°57' E 012°56'0 0.2
2018-Jun-03 19:30N 40°58' E 012°56'0 0.4
2018-Jun-03 19:00N 40°58' E 012°56'0 0.2
2018-Jun-03 18:30N 40°58' E 012°56'0 0.4
2018-Jun-03 18:00N 40°58' E 012°56'  
Track history (hours):
 
Tides and Currents Weather Stations Pressure Air Temp Water Temp Dewpoint Dewpoint Depression Visibility Wind Speed Wind Dir Waves Ship Positions

Royal Clipper

Last reported at 2018-Jun-13 08:27 UTC. Time now 2018-Jun-21 20:09 UTC.
Position N 37°56' E 015°25'.
Warning: this ship's position is 8 days out of date.

Length 137 m; draft 6.2 m.

Type: Ship. MMSI: 215813000.

Date/timePositionNaut miles runAvg speedWind from/ knotsBaromVisibWave heightAir tempDewpointWater temp
2018-Jun-13 08:27N 37°56' E 015°25'7 7.7
2018-Jun-13 07:33N 38°02' E 015°30'110.3
2018-Jun-13 07:30N 38°03' E 015°30'510.0
2018-Jun-13 06:59N 38°07' E 015°33'510.4
2018-Jun-13 06:30N 38°12' E 015°35'612.6
2018-Jun-13 06:00N 38°17' E 015°40'510.4
2018-Jun-13 05:30N 38°21' E 015°37'3 6.9
2018-Jun-13 05:00N 38°25' E 015°36'5 9.9
2018-Jun-13 04:28N 38°30' E 015°33'12410.2
2018-Jun-12 16:21N 40°21' E 014°23'411.2
2018-Jun-12 16:00N 40°25' E 014°21'611.3
2018-Jun-12 15:30N 40°30' E 014°19'611.0
2018-Jun-12 15:00N 40°36' E 014°17'4 8.7
2018-Jun-12 14:30N 40°39' E 014°21'2 2.9
2018-Jun-12 13:55N 40°38' E 014°23'0 0.0
2018-Jun-12 13:28N 40°38' E 014°23'0 0.0
2018-Jun-12 12:58N 40°38' E 014°23'0 0.0
2018-Jun-12 12:28N 40°38' E 014°23'0 0.0
2018-Jun-12 11:58N 40°38' E 014°23'0 0.0
2018-Jun-12 11:28N 40°38' E 014°23'0 0.0
2018-Jun-12 10:58N 40°38' E 014°23'0 0.0
2018-Jun-12 10:28N 40°38' E 014°23'0 0.0
2018-Jun-12 09:55N 40°38' E 014°23'0 0.0
2018-Jun-12 09:28N 40°38' E 014°23'0 0.0
2018-Jun-12 08:58N 40°38' E 014°23'0 0.0
2018-Jun-12 08:28N 40°38' E 014°23'0 0.0
2018-Jun-12 07:58N 40°38' E 014°23'0 0.0
2018-Jun-12 07:28N 40°38' E 014°23'0 0.0
2018-Jun-12 06:58N 40°38' E 014°23'0 0.0
2018-Jun-12 06:28N 40°38' E 014°23'0 0.0
2018-Jun-12 05:58N 40°38' E 014°23'0 0.0
2018-Jun-12 05:25N 40°38' E 014°23'0 0.0
2018-Jun-12 04:58N 40°38' E 014°23'0 0.0
2018-Jun-12 04:28N 40°38' E 014°23'0 0.0
2018-Jun-12 03:58N 40°38' E 014°23'0 0.0
2018-Jun-12 03:28N 40°38' E 014°23'0 0.0
2018-Jun-12 02:58N 40°38' E 014°23'0 0.0
2018-Jun-12 02:28N 40°38' E 014°23'0 0.0
2018-Jun-12 01:58N 40°38' E 014°23'0 0.0
2018-Jun-12 01:28N 40°38' E 014°23'0 0.0
2018-Jun-12 00:58N 40°38' E 014°23'0 0.0
2018-Jun-12 00:28N 40°38' E 014°23'0 0.0
2018-Jun-11 23:58N 40°38' E 014°23'0 0.0
2018-Jun-11 23:28N 40°38' E 014°23'0 0.0
2018-Jun-11 22:58N 40°38' E 014°23'0 0.0
2018-Jun-11 22:19N 40°38' E 014°23'0 0.0
2018-Jun-11 21:52N 40°38' E 014°23'0 0.0
2018-Jun-11 21:19N 40°38' E 014°23'0 0.0
2018-Jun-11 20:55N 40°38' E 014°23'0 0.0
2018-Jun-11 20:25N 40°38' E 014°23'0 0.0
2018-Jun-11 19:58N 40°38' E 014°23'0 0.0
2018-Jun-11 19:28N 40°38' E 014°23'0 0.0
2018-Jun-11 18:55N 40°38' E 014°23'0 0.0
2018-Jun-11 18:28N 40°38' E 014°23'0 0.0
2018-Jun-11 17:58N 40°38' E 014°23'0 0.0
2018-Jun-11 17:28N 40°38' E 014°23'0 0.0
2018-Jun-11 16:55N 40°38' E 014°23'0 0.0
2018-Jun-11 16:28N 40°38' E 014°23'0 0.0
2018-Jun-11 15:58N 40°38' E 014°23'0 0.0
2018-Jun-11 15:28N 40°38' E 014°23'0 0.0
2018-Jun-11 14:58N 40°38' E 014°23'0 0.0
2018-Jun-11 14:28N 40°38' E 014°23'0 0.0
2018-Jun-11 13:58N 40°38' E 014°23'0 0.0
2018-Jun-11 13:28N 40°38' E 014°23'0 0.0
2018-Jun-11 12:58N 40°38' E 014°23'0 0.0
2018-Jun-11 12:28N 40°38' E 014°23'0 0.0
2018-Jun-11 11:58N 40°38' E 014°23'0 0.0
2018-Jun-11 11:28N 40°38' E 014°23'0 0.1
2018-Jun-11 10:58N 40°38' E 014°23'0 0.0
2018-Jun-11 10:28N 40°38' E 014°23'0 0.1
2018-Jun-11 09:58N 40°38' E 014°23'0 0.0
2018-Jun-11 09:19N 40°38' E 014°23'0 0.0
2018-Jun-11 08:58N 40°38' E 014°23'0 0.0
2018-Jun-11 08:28N 40°38' E 014°23'0 0.0
2018-Jun-11 07:58N 40°38' E 014°23'0 0.0
2018-Jun-11 07:28N 40°38' E 014°23'0 0.0
2018-Jun-11 06:52N 40°38' E 014°23'0 0.1
2018-Jun-11 06:30N 40°38' E 014°23'3 6.9
2018-Jun-11 06:00N 40°39' E 014°18'510.7
2018-Jun-11 05:30N 40°39' E 014°11'510.1
2018-Jun-11 05:00N 40°39' E 014°05'5 9.3
2018-Jun-11 04:29N 40°39' E 013°58'4 9.3
2018-Jun-11 04:01N 40°39' E 013°52'5 9.6
2018-Jun-11 03:28N 40°39' E 013°46'1 3.2
2018-Jun-11 03:00N 40°40' E 013°44'1 1.1
2018-Jun-11 02:29N 40°40' E 013°43'1 1.4
2018-Jun-11 01:57N 40°40' E 013°42'1 1.1
2018-Jun-11 01:30N 40°40' E 013°41'1 1.2
2018-Jun-11 00:39N 40°40' E 013°40'1 2.1
2018-Jun-11 00:14N 40°41' E 013°39'1 2.8
2018-Jun-10 23:56N 40°41' E 013°38'2 3.0
2018-Jun-10 23:20N 40°41' E 013°36'1 3.5
2018-Jun-10 23:00N 40°41' E 013°34'2 3.6
2018-Jun-10 22:30N 40°42' E 013°32'2 3.6
2018-Jun-10 22:01N 40°42' E 013°30'4 3.9
2018-Jun-10 21:01N 40°43' E 013°25'22 1.9
2018-Jun-10 09:10N 40°54' E 012°59'21 0.5
2018-Jun-08 12:05N 41°00' E 013°25'1 8.4
2018-Jun-08 12:00N 40°60' E 013°26'158 8.4
2018-Jun-07 17:07N 38°44' E 015°11'1010.8
2018-Jun-07 16:14N 38°35' E 015°06'310.5
2018-Jun-07 15:59N 38°33' E 015°04'511.1
2018-Jun-07 15:30N 38°29' E 014°60'2 0.3
2018-Jun-07 08:38N 38°28' E 014°58'0 0.0
2018-Jun-07 08:20N 38°28' E 014°58'6 3.5
2018-Jun-07 06:38N 38°27' E 015°05'311.0
2018-Jun-07 06:22N 38°26' E 015°09'2 5.6
2018-Jun-07 05:59N 38°25' E 015°11'3 4.6
2018-Jun-07 05:25N 38°24' E 015°14'1 2.9
2018-Jun-07 04:57N 38°24' E 015°16'2 3.3
2018-Jun-07 04:20N 38°23' E 015°18'1 3.7
2018-Jun-07 03:59N 38°23' E 015°20'3 3.7
2018-Jun-07 03:14N 38°22' E 015°23'1 3.4
2018-Jun-07 03:00N 38°22' E 015°24'2 3.1
2018-Jun-07 02:30N 38°22' E 015°26'2 3.8
2018-Jun-07 02:00N 38°21' E 015°29'10 9.9
2018-Jun-07 01:00N 38°20' E 015°41'710.5
2018-Jun-07 00:20N 38°14' E 015°37'513.0
2018-Jun-06 23:58N 38°09' E 015°37'510.3
2018-Jun-06 23:29N 38°04' E 015°35'11 0.7
2018-Jun-06 07:39N 37°56' E 015°25'711.6
2018-Jun-06 07:03N 38°02' E 015°30'1 8.3
2018-Jun-06 06:58N 38°03' E 015°30'613.8
2018-Jun-06 06:30N 38°08' E 015°34'814.3
2018-Jun-06 05:58N 38°15' E 015°39'612.2
2018-Jun-06 05:30N 38°21' E 015°38'714.1
2018-Jun-06 05:00N 38°27' E 015°35'13110.0
2018-Jun-05 15:57N 40°31' E 014°42'5 0.5
2018-Jun-05 05:05N 40°34' E 014°36'2 2.9
2018-Jun-05 04:23N 40°32' E 014°34'2 3.5
2018-Jun-05 03:54N 40°31' E 014°33'1 2.4
2018-Jun-05 03:23N 40°30' E 014°31'1 2.7
2018-Jun-05 02:57N 40°29' E 014°30'1 3.0
2018-Jun-05 02:30N 40°29' E 014°29'2 3.3
2018-Jun-05 02:00N 40°29' E 014°26'1 2.8
2018-Jun-05 01:29N 40°30' E 014°25'2 3.8
2018-Jun-05 01:00N 40°31' E 014°24'2 3.1
2018-Jun-05 00:30N 40°32' E 014°22'1 1.1
2018-Jun-05 00:00N 40°32' E 014°21'1 2.7
2018-Jun-04 23:30N 40°32' E 014°20'3 5.6
2018-Jun-04 23:00N 40°34' E 014°17'5 9.6
2018-Jun-04 22:30N 40°39' E 014°19'3 6.9
2018-Jun-04 22:00N 40°38' E 014°23'0 0.2
2018-Jun-04 21:28N 40°38' E 014°23'0 0.0
2018-Jun-04 20:58N 40°38' E 014°23'0 0.0
2018-Jun-04 20:28N 40°38' E 014°23'0 0.0
2018-Jun-04 19:58N 40°38' E 014°23'0 0.0
2018-Jun-04 19:28N 40°38' E 014°23'0 0.0
2018-Jun-04 18:58N 40°38' E 014°23'0 0.0
2018-Jun-04 18:28N 40°38' E 014°23'0 0.0
2018-Jun-04 17:58N 40°38' E 014°23'0 0.0
2018-Jun-04 17:28N 40°38' E 014°23'0 0.0
2018-Jun-04 16:58N 40°38' E 014°23'0 0.0
2018-Jun-04 16:28N 40°38' E 014°23'0 0.0
2018-Jun-04 15:58N 40°38' E 014°23'0 0.0
2018-Jun-04 15:28N 40°38' E 014°23'0 0.0
2018-Jun-04 14:58N 40°38' E 014°23'0 0.0
2018-Jun-04 14:28N 40°38' E 014°23'0 0.0
2018-Jun-04 13:58N 40°38' E 014°23'0 0.1
2018-Jun-04 13:28N 40°38' E 014°23'0 0.0
2018-Jun-04 12:58N 40°38' E 014°23'0 0.0
2018-Jun-04 12:28N 40°38' E 014°23'0 0.1
2018-Jun-04 11:58N 40°38' E 014°23'0 0.0
2018-Jun-04 11:28N 40°38' E 014°23'0 0.0
2018-Jun-04 10:58N 40°38' E 014°23'0 0.0
2018-Jun-04 10:28N 40°38' E 014°23'0 0.0
2018-Jun-04 09:58N 40°38' E 014°23'0 0.0
2018-Jun-04 09:28N 40°38' E 014°23'0 0.0
2018-Jun-04 08:58N 40°38' E 014°23'0 0.0
2018-Jun-04 08:28N 40°38' E 014°23'0 0.1
2018-Jun-04 07:58N 40°38' E 014°23'0 0.0
2018-Jun-04 07:28N 40°38' E 014°23'0 0.0
2018-Jun-04 06:58N 40°38' E 014°23'0 0.0
2018-Jun-04 06:28N 40°38' E 014°23'0 0.0
2018-Jun-04 05:58N 40°38' E 014°23'0 0.0
2018-Jun-04 05:30N 40°38' E 014°23'0 0.3
2018-Jun-04 05:00N 40°38' E 014°23'4 8.7
2018-Jun-04 04:30N 40°39' E 014°17'510.7
2018-Jun-04 04:00N 40°39' E 014°10'510.7
2018-Jun-04 03:31N 40°38' E 014°03'510.6
2018-Jun-04 03:00N 40°38' E 013°56'510.9
2018-Jun-04 02:30N 40°39' E 013°49'611.0
2018-Jun-04 02:00N 40°40' E 013°42'611.1
2018-Jun-04 01:30N 40°41' E 013°35'511.0
2018-Jun-04 01:00N 40°42' E 013°28'610.9
2018-Jun-04 00:29N 40°43' E 013°21'1010.6
2018-Jun-03 23:35N 40°48' E 013°10'14 4.7
2018-Jun-03 20:35N 40°57' E 012°56'0 0.7
2018-Jun-03 20:30N 40°57' E 012°56'0 0.6
2018-Jun-03 20:00N 40°57' E 012°56'0 0.2
2018-Jun-03 19:30N 40°58' E 012°56'0 0.4
2018-Jun-03 19:00N 40°58' E 012°56'0 0.2
2018-Jun-03 18:30N 40°58' E 012°56'0 0.4
2018-Jun-03 18:00N 40°58' E 012°56'  

Dump ship's entire track history